Carlisle, KY (40311)

07:00 EST le 21 novembre 2014 (GMT -0500)
Ridge Road Jet Center | Change Station
CLOSE
Current Station
Stations météorologiques personnelles
Location: Owingsville, KY
Altitude: 899 ft
Stations météo à proximité

Alt. 899 ft 38.14 °N, 83.78 °W | Updated 10 minutes ago

Ciel dégagé
Ciel dégagé
18.0 ° F
Paraît 12 ° F
N
4.2
Vent Variable Vent de Ouest

Aujourd'hui
Haut(e) -- | Bas -- ° F
--% Risque de précip.
Hier
Haut(e) -- | Bas -- ° F
Precip. -- pouce
7:23 AM 5:19 PM
Lune descendante, 1% visible
Pression 30.45 pouce
Visibilité 10.0 Miles terrestres
Nuages Ciel dégagé
Refroidissement éolien 12 ° F
Point de rosée 15 ° F
Humidité 89%
Précipitations 0.00 pouce
Profondeur de la couche neigeuse Non disponible.
UV 0 sur 12
Pollen .10 sur 12
Qualité de l'air Non disponible.
Flu Activity Non disponible.
METAR KIOB 211155Z AUTO 00000KT 10SM CLR M09/M10 A3045 RMK AO2

More Conditions Fewer Conditions

Pression 30.45 pouce
Visibilité 10.0 Miles terrestres
Nuages Ciel dégagé
Refroidissement éolien 12 ° F
Point de rosée 15 ° F
Humidité 89%
Précipitations 0.00 pouce
Profondeur de la couche neigeuse Non disponible.
UV 0 sur 12
Pollen .10 sur 12
Qualité de l'air Non disponible.
Flu Activity Non disponible.
METAR KIOB 211155Z AUTO 00000KT 10SM CLR M09/M10 A3045 RMK AO2

More Conditions Fewer Conditions

10-Day Weather Forecast

Almanac

Astronomie

Nov. 21, 2014 Lever Coucher
Temps réel
Crépuscule civil
Crépuscule nautique
Crépuscule astronomique
Lune
Durée de lumière visible
Longueur du jour
Tomorrow will be .
, % of the Moon is Illuminated

Extrêmes aujourd'hui

State Highs State Lows

Community

WunderPhotos

Upload Photos

1,772,646 Photos téléchargées !

WunderBlogs® & News

Nearby

Qualité de l'air

  Qualité de l'air Indice de la qualité de l'air Polluant
Not available.

Épaisseur de neige

Station Depth Altitude

Activité sismique

Ville Distance Mag. Time & Date
Minimum magnitude displayed is 2.5.

Températures des eaux côtières

Lieu Température

Stations météo à proximité